sensor_id;sensor_type;location;lat;lon;timestamp;temperature;humidity
74657;DHT22;63185;45.642;13.764;2024-03-22T00:01:51;15.80;62.10
74657;DHT22;63185;45.642;13.764;2024-03-22T00:04:17;15.70;64.50
74657;DHT22;63185;45.642;13.764;2024-03-22T00:06:43;15.70;65.70
74657;DHT22;63185;45.642;13.764;2024-03-22T00:09:10;15.60;66.30
74657;DHT22;63185;45.642;13.764;2024-03-22T00:11:36;15.50;66.40
74657;DHT22;63185;45.642;13.764;2024-03-22T00:14:02;15.40;66.40
74657;DHT22;63185;45.642;13.764;2024-03-22T00:16:28;15.40;65.90
74657;DHT22;63185;45.642;13.764;2024-03-22T00:18:54;15.30;64.10
74657;DHT22;63185;45.642;13.764;2024-03-22T00:21:21;15.40;62.90
74657;DHT22;63185;45.642;13.764;2024-03-22T00:23:47;15.40;62.40
74657;DHT22;63185;45.642;13.764;2024-03-22T00:26:13;15.40;61.80
74657;DHT22;63185;45.642;13.764;2024-03-22T00:28:39;15.40;60.70
74657;DHT22;63185;45.642;13.764;2024-03-22T00:31:04;15.40;61.00
74657;DHT22;63185;45.642;13.764;2024-03-22T00:33:30;15.40;60.80
74657;DHT22;63185;45.642;13.764;2024-03-22T00:35:56;15.30;61.10
74657;DHT22;63185;45.642;13.764;2024-03-22T00:38:22;15.30;61.40
74657;DHT22;63185;45.642;13.764;2024-03-22T00:40:47;15.20;62.20
74657;DHT22;63185;45.642;13.764;2024-03-22T00:43:13;15.20;62.10
74657;DHT22;63185;45.642;13.764;2024-03-22T00:45:38;15.20;61.80
74657;DHT22;63185;45.642;13.764;2024-03-22T00:48:04;15.30;62.10
74657;DHT22;63185;45.642;13.764;2024-03-22T00:50:30;15.20;62.40
74657;DHT22;63185;45.642;13.764;2024-03-22T00:52:56;15.20;62.50
74657;DHT22;63185;45.642;13.764;2024-03-22T00:55:23;15.10;63.00
74657;DHT22;63185;45.642;13.764;2024-03-22T00:57:48;15.10;63.10
74657;DHT22;63185;45.642;13.764;2024-03-22T01:00:15;15.00;63.50
74657;DHT22;63185;45.642;13.764;2024-03-22T01:02:41;14.90;63.80
74657;DHT22;63185;45.642;13.764;2024-03-22T01:05:07;14.80;63.90
74657;DHT22;63185;45.642;13.764;2024-03-22T01:07:32;14.80;63.90
74657;DHT22;63185;45.642;13.764;2024-03-22T01:09:58;14.80;63.70
74657;DHT22;63185;45.642;13.764;2024-03-22T01:12:25;14.80;63.70
74657;DHT22;63185;45.642;13.764;2024-03-22T01:14:50;14.80;63.70
74657;DHT22;63185;45.642;13.764;2024-03-22T01:17:16;14.70;63.60
74657;DHT22;63185;45.642;13.764;2024-03-22T01:19:42;14.70;63.60
74657;DHT22;63185;45.642;13.764;2024-03-22T01:22:07;14.80;63.60
74657;DHT22;63185;45.642;13.764;2024-03-22T01:24:33;14.70;63.80
74657;DHT22;63185;45.642;13.764;2024-03-22T01:26:59;14.70;64.00
74657;DHT22;63185;45.642;13.764;2024-03-22T01:29:24;14.70;63.90
74657;DHT22;63185;45.642;13.764;2024-03-22T01:31:50;14.70;63.90
74657;DHT22;63185;45.642;13.764;2024-03-22T01:34:16;14.70;64.10
74657;DHT22;63185;45.642;13.764;2024-03-22T01:36:41;14.60;64.30
74657;DHT22;63185;45.642;13.764;2024-03-22T01:39:07;14.60;64.30
74657;DHT22;63185;45.642;13.764;2024-03-22T01:41:32;14.60;64.50
74657;DHT22;63185;45.642;13.764;2024-03-22T01:43:58;14.60;64.40
74657;DHT22;63185;45.642;13.764;2024-03-22T01:46:24;14.60;64.40
74657;DHT22;63185;45.642;13.764;2024-03-22T01:48:50;14.60;64.60
74657;DHT22;63185;45.642;13.764;2024-03-22T01:51:17;14.50;64.60
74657;DHT22;63185;45.642;13.764;2024-03-22T01:53:43;14.50;64.60
74657;DHT22;63185;45.642;13.764;2024-03-22T01:56:09;14.50;64.70
74657;DHT22;63185;45.642;13.764;2024-03-22T01:58:36;14.60;64.60
74657;DHT22;63185;45.642;13.764;2024-03-22T02:01:01;14.60;64.40
74657;DHT22;63185;45.642;13.764;2024-03-22T02:03:27;14.50;64.40
74657;DHT22;63185;45.642;13.764;2024-03-22T02:05:53;14.50;64.40
74657;DHT22;63185;45.642;13.764;2024-03-22T02:08:19;14.50;64.40
74657;DHT22;63185;45.642;13.764;2024-03-22T02:10:45;14.60;64.40
74657;DHT22;63185;45.642;13.764;2024-03-22T02:13:11;14.50;64.20
74657;DHT22;63185;45.642;13.764;2024-03-22T02:15:37;14.50;64.30
74657;DHT22;63185;45.642;13.764;2024-03-22T02:18:04;14.50;64.00
74657;DHT22;63185;45.642;13.764;2024-03-22T02:20:30;14.50;64.00
74657;DHT22;63185;45.642;13.764;2024-03-22T02:22:55;14.60;63.70
74657;DHT22;63185;45.642;13.764;2024-03-22T02:25:21;14.50;63.80
74657;DHT22;63185;45.642;13.764;2024-03-22T02:27:47;14.60;63.80
74657;DHT22;63185;45.642;13.764;2024-03-22T02:30:16;14.60;63.60
74657;DHT22;63185;45.642;13.764;2024-03-22T02:32:42;14.60;63.80
74657;DHT22;63185;45.642;13.764;2024-03-22T02:35:08;14.50;63.80
74657;DHT22;63185;45.642;13.764;2024-03-22T02:37:34;14.60;63.70
74657;DHT22;63185;45.642;13.764;2024-03-22T02:39:59;14.50;63.80
74657;DHT22;63185;45.642;13.764;2024-03-22T02:42:25;14.50;63.70
74657;DHT22;63185;45.642;13.764;2024-03-22T02:44:52;14.50;63.80
74657;DHT22;63185;45.642;13.764;2024-03-22T02:47:18;14.50;63.80
74657;DHT22;63185;45.642;13.764;2024-03-22T02:49:43;14.40;63.70
74657;DHT22;63185;45.642;13.764;2024-03-22T02:52:09;14.40;63.40
74657;DHT22;63185;45.642;13.764;2024-03-22T02:54:35;14.50;63.30
74657;DHT22;63185;45.642;13.764;2024-03-22T02:57:00;14.50;63.40
74657;DHT22;63185;45.642;13.764;2024-03-22T02:59:27;14.50;63.00
74657;DHT22;63185;45.642;13.764;2024-03-22T03:01:53;14.50;63.00
74657;DHT22;63185;45.642;13.764;2024-03-22T03:04:19;14.50;62.80
74657;DHT22;63185;45.642;13.764;2024-03-22T03:06:44;14.60;62.00
74657;DHT22;63185;45.642;13.764;2024-03-22T03:09:13;14.60;62.40
74657;DHT22;63185;45.642;13.764;2024-03-22T03:11:39;14.50;62.50
74657;DHT22;63185;45.642;13.764;2024-03-22T03:14:05;14.50;62.40
74657;DHT22;63185;45.642;13.764;2024-03-22T03:16:31;14.50;62.20
74657;DHT22;63185;45.642;13.764;2024-03-22T03:18:57;14.50;62.10
74657;DHT22;63185;45.642;13.764;2024-03-22T03:21:22;14.50;61.80
74657;DHT22;63185;45.642;13.764;2024-03-22T03:23:48;14.40;61.60
74657;DHT22;63185;45.642;13.764;2024-03-22T03:26:14;14.40;61.20
74657;DHT22;63185;45.642;13.764;2024-03-22T03:28:39;14.50;61.10
74657;DHT22;63185;45.642;13.764;2024-03-22T03:31:05;14.50;60.80
74657;DHT22;63185;45.642;13.764;2024-03-22T03:33:30;14.60;60.90
74657;DHT22;63185;45.642;13.764;2024-03-22T03:35:56;14.50;61.00
74657;DHT22;63185;45.642;13.764;2024-03-22T03:38:22;14.50;60.80
74657;DHT22;63185;45.642;13.764;2024-03-22T03:40:48;14.60;60.70
74657;DHT22;63185;45.642;13.764;2024-03-22T03:43:13;14.60;61.10
74657;DHT22;63185;45.642;13.764;2024-03-22T03:45:39;14.50;61.10
74657;DHT22;63185;45.642;13.764;2024-03-22T03:48:05;14.50;61.40
74657;DHT22;63185;45.642;13.764;2024-03-22T03:50:31;14.40;61.00
74657;DHT22;63185;45.642;13.764;2024-03-22T03:52:57;14.50;60.80
74657;DHT22;63185;45.642;13.764;2024-03-22T03:55:23;14.50;61.00
74657;DHT22;63185;45.642;13.764;2024-03-22T03:57:52;14.50;61.30
74657;DHT22;63185;45.642;13.764;2024-03-22T04:00:21;14.40;61.60
74657;DHT22;63185;45.642;13.764;2024-03-22T04:02:49;14.40;61.40
74657;DHT22;63185;45.642;13.764;2024-03-22T04:05:15;14.30;61.00
74657;DHT22;63185;45.642;13.764;2024-03-22T04:07:41;14.40;59.70
74657;DHT22;63185;45.642;13.764;2024-03-22T04:10:08;14.50;58.90
74657;DHT22;63185;45.642;13.764;2024-03-22T04:12:34;14.50;58.50
74657;DHT22;63185;45.642;13.764;2024-03-22T04:15:00;14.60;57.70
74657;DHT22;63185;45.642;13.764;2024-03-22T04:17:25;14.60;57.10
74657;DHT22;63185;45.642;13.764;2024-03-22T04:19:51;14.60;56.90
74657;DHT22;63185;45.642;13.764;2024-03-22T04:22:17;14.70;56.90
74657;DHT22;63185;45.642;13.764;2024-03-22T04:24:43;14.80;56.70
74657;DHT22;63185;45.642;13.764;2024-03-22T04:27:09;14.80;56.60
74657;DHT22;63185;45.642;13.764;2024-03-22T04:29:34;14.90;56.20
74657;DHT22;63185;45.642;13.764;2024-03-22T04:32:00;15.10;54.40
74657;DHT22;63185;45.642;13.764;2024-03-22T04:34:25;15.20;54.00
74657;DHT22;63185;45.642;13.764;2024-03-22T04:36:51;15.20;54.30
74657;DHT22;63185;45.642;13.764;2024-03-22T04:39:19;15.20;54.70
74657;DHT22;63185;45.642;13.764;2024-03-22T04:41:45;15.20;55.80
74657;DHT22;63185;45.642;13.764;2024-03-22T04:44:10;15.10;55.40
74657;DHT22;63185;45.642;13.764;2024-03-22T04:46:36;15.10;56.70
74657;DHT22;63185;45.642;13.764;2024-03-22T04:49:02;15.10;56.20
74657;DHT22;63185;45.642;13.764;2024-03-22T04:51:27;15.10;55.80
74657;DHT22;63185;45.642;13.764;2024-03-22T04:53:53;15.00;54.90
74657;DHT22;63185;45.642;13.764;2024-03-22T04:56:19;15.20;53.60
74657;DHT22;63185;45.642;13.764;2024-03-22T04:58:44;15.30;54.20
74657;DHT22;63185;45.642;13.764;2024-03-22T05:01:10;15.40;54.70
74657;DHT22;63185;45.642;13.764;2024-03-22T05:03:38;15.30;55.10
74657;DHT22;63185;45.642;13.764;2024-03-22T05:06:04;15.40;53.50
74657;DHT22;63185;45.642;13.764;2024-03-22T05:08:31;15.40;54.00
74657;DHT22;63185;45.642;13.764;2024-03-22T05:10:57;15.20;54.80
74657;DHT22;63185;45.642;13.764;2024-03-22T05:13:23;15.10;55.80
74657;DHT22;63185;45.642;13.764;2024-03-22T05:15:48;15.10;56.00
74657;DHT22;63185;45.642;13.764;2024-03-22T05:18:14;15.00;56.50
74657;DHT22;63185;45.642;13.764;2024-03-22T05:20:40;14.90;56.70
74657;DHT22;63185;45.642;13.764;2024-03-22T05:23:05;14.90;56.60
74657;DHT22;63185;45.642;13.764;2024-03-22T05:25:31;14.90;56.90
74657;DHT22;63185;45.642;13.764;2024-03-22T05:27:56;14.90;57.30
74657;DHT22;63185;45.642;13.764;2024-03-22T05:30:22;14.80;57.20
74657;DHT22;63185;45.642;13.764;2024-03-22T05:32:48;14.80;57.40
74657;DHT22;63185;45.642;13.764;2024-03-22T05:35:15;14.80;56.90
74657;DHT22;63185;45.642;13.764;2024-03-22T05:37:41;14.80;56.60
74657;DHT22;63185;45.642;13.764;2024-03-22T05:40:07;14.80;56.50
74657;DHT22;63185;45.642;13.764;2024-03-22T05:42:34;14.90;56.30
74657;DHT22;63185;45.642;13.764;2024-03-22T05:44:59;14.90;55.70
74657;DHT22;63185;45.642;13.764;2024-03-22T05:47:25;15.00;55.90
74657;DHT22;63185;45.642;13.764;2024-03-22T05:49:51;15.10;55.70
74657;DHT22;63185;45.642;13.764;2024-03-22T05:52:17;15.20;53.40
74657;DHT22;63185;45.642;13.764;2024-03-22T05:54:43;15.30;53.80
74657;DHT22;63185;45.642;13.764;2024-03-22T05:57:09;15.40;54.20
74657;DHT22;63185;45.642;13.764;2024-03-22T05:59:35;15.30;54.10
74657;DHT22;63185;45.642;13.764;2024-03-22T06:02:01;15.40;53.90
74657;DHT22;63185;45.642;13.764;2024-03-22T06:04:27;15.50;54.50
74657;DHT22;63185;45.642;13.764;2024-03-22T06:06:53;15.50;54.50
74657;DHT22;63185;45.642;13.764;2024-03-22T06:09:19;15.60;54.30
74657;DHT22;63185;45.642;13.764;2024-03-22T06:12:00;15.60;53.90
74657;DHT22;63185;45.642;13.764;2024-03-22T06:14:27;15.60;53.60
74657;DHT22;63185;45.642;13.764;2024-03-22T06:16:53;15.70;53.90
74657;DHT22;63185;45.642;13.764;2024-03-22T06:19:19;15.80;53.40
74657;DHT22;63185;45.642;13.764;2024-03-22T06:21:44;15.80;53.50
74657;DHT22;63185;45.642;13.764;2024-03-22T06:24:10;15.90;52.70
74657;DHT22;63185;45.642;13.764;2024-03-22T06:26:36;15.90;51.70
74657;DHT22;63185;45.642;13.764;2024-03-22T06:29:01;16.10;51.80
74657;DHT22;63185;45.642;13.764;2024-03-22T06:31:27;16.10;51.60
74657;DHT22;63185;45.642;13.764;2024-03-22T06:33:53;16.20;50.50
74657;DHT22;63185;45.642;13.764;2024-03-22T06:36:19;16.40;50.80
74657;DHT22;63185;45.642;13.764;2024-03-22T06:38:45;16.50;51.60
74657;DHT22;63185;45.642;13.764;2024-03-22T06:41:10;16.50;51.40
74657;DHT22;63185;45.642;13.764;2024-03-22T06:43:36;16.50;50.70
74657;DHT22;63185;45.642;13.764;2024-03-22T06:46:01;16.60;50.90
74657;DHT22;63185;45.642;13.764;2024-03-22T06:48:27;16.70;51.10
74657;DHT22;63185;45.642;13.764;2024-03-22T06:50:53;16.70;51.40
74657;DHT22;63185;45.642;13.764;2024-03-22T06:53:19;16.90;51.40
74657;DHT22;63185;45.642;13.764;2024-03-22T06:55:44;16.80;50.20
74657;DHT22;63185;45.642;13.764;2024-03-22T06:58:10;16.90;51.80
74657;DHT22;63185;45.642;13.764;2024-03-22T07:00:36;16.90;49.30
74657;DHT22;63185;45.642;13.764;2024-03-22T07:03:02;17.00;50.20
74657;DHT22;63185;45.642;13.764;2024-03-22T07:05:28;17.10;50.80
74657;DHT22;63185;45.642;13.764;2024-03-22T07:07:54;17.10;50.40
74657;DHT22;63185;45.642;13.764;2024-03-22T07:10:23;17.10;49.70
74657;DHT22;63185;45.642;13.764;2024-03-22T07:12:55;17.20;50.40
74657;DHT22;63185;45.642;13.764;2024-03-22T07:15:25;17.30;49.40
74657;DHT22;63185;45.642;13.764;2024-03-22T07:17:50;17.30;50.80
74657;DHT22;63185;45.642;13.764;2024-03-22T07:20:17;17.40;51.20
74657;DHT22;63185;45.642;13.764;2024-03-22T07:22:43;17.40;50.10
74657;DHT22;63185;45.642;13.764;2024-03-22T07:25:09;17.50;50.10
74657;DHT22;63185;45.642;13.764;2024-03-22T07:27:35;17.60;50.70
74657;DHT22;63185;45.642;13.764;2024-03-22T07:30:01;17.50;51.80
74657;DHT22;63185;45.642;13.764;2024-03-22T07:32:28;17.40;52.90
74657;DHT22;63185;45.642;13.764;2024-03-22T07:34:54;17.30;54.20
74657;DHT22;63185;45.642;13.764;2024-03-22T07:37:20;17.20;53.90
74657;DHT22;63185;45.642;13.764;2024-03-22T07:39:46;17.20;54.70
74657;DHT22;63185;45.642;13.764;2024-03-22T07:42:11;17.20;54.00
74657;DHT22;63185;45.642;13.764;2024-03-22T07:44:37;17.40;54.00
74657;DHT22;63185;45.642;13.764;2024-03-22T07:47:03;17.50;52.00
74657;DHT22;63185;45.642;13.764;2024-03-22T07:49:28;17.60;52.70
74657;DHT22;63185;45.642;13.764;2024-03-22T07:51:54;17.80;51.80
74657;DHT22;63185;45.642;13.764;2024-03-22T07:54:21;17.90;50.30
74657;DHT22;63185;45.642;13.764;2024-03-22T07:56:46;18.10;51.00
74657;DHT22;63185;45.642;13.764;2024-03-22T07:59:12;18.10;50.60
74657;DHT22;63185;45.642;13.764;2024-03-22T08:01:38;18.20;49.20
74657;DHT22;63185;45.642;13.764;2024-03-22T08:04:04;18.40;46.80
74657;DHT22;63185;45.642;13.764;2024-03-22T08:06:29;18.60;46.90
74657;DHT22;63185;45.642;13.764;2024-03-22T08:08:55;18.80;45.70
74657;DHT22;63185;45.642;13.764;2024-03-22T08:11:20;18.90;45.20
74657;DHT22;63185;45.642;13.764;2024-03-22T08:13:46;19.00;44.30
74657;DHT22;63185;45.642;13.764;2024-03-22T08:16:12;19.20;43.50
74657;DHT22;63185;45.642;13.764;2024-03-22T08:18:37;19.20;43.70
74657;DHT22;63185;45.642;13.764;2024-03-22T08:21:03;19.40;42.50
74657;DHT22;63185;45.642;13.764;2024-03-22T08:23:29;19.40;42.30
74657;DHT22;63185;45.642;13.764;2024-03-22T08:25:55;19.40;41.50
74657;DHT22;63185;45.642;13.764;2024-03-22T08:28:22;19.60;41.60
74657;DHT22;63185;45.642;13.764;2024-03-22T08:30:48;19.70;40.80
74657;DHT22;63185;45.642;13.764;2024-03-22T08:33:14;19.80;40.10
74657;DHT22;63185;45.642;13.764;2024-03-22T08:35:39;20.00;40.10
74657;DHT22;63185;45.642;13.764;2024-03-22T08:38:05;20.10;40.20
74657;DHT22;63185;45.642;13.764;2024-03-22T08:40:37;20.10;40.00
74657;DHT22;63185;45.642;13.764;2024-03-22T08:43:03;20.10;39.80
74657;DHT22;63185;45.642;13.764;2024-03-22T08:45:29;20.10;39.40
74657;DHT22;63185;45.642;13.764;2024-03-22T08:47:55;20.10;39.80
74657;DHT22;63185;45.642;13.764;2024-03-22T08:50:20;20.30;39.90
74657;DHT22;63185;45.642;13.764;2024-03-22T08:52:46;20.40;39.80
74657;DHT22;63185;45.642;13.764;2024-03-22T08:55:11;20.40;39.50
74657;DHT22;63185;45.642;13.764;2024-03-22T08:57:38;20.50;39.40
74657;DHT22;63185;45.642;13.764;2024-03-22T09:00:04;20.50;39.50
74657;DHT22;63185;45.642;13.764;2024-03-22T09:02:30;20.60;38.50
74657;DHT22;63185;45.642;13.764;2024-03-22T09:04:56;20.70;38.80
74657;DHT22;63185;45.642;13.764;2024-03-22T09:07:21;20.90;38.20
74657;DHT22;63185;45.642;13.764;2024-03-22T09:09:49;21.10;38.90
74657;DHT22;63185;45.642;13.764;2024-03-22T09:12:14;21.10;38.50
74657;DHT22;63185;45.642;13.764;2024-03-22T09:14:40;21.20;38.00
74657;DHT22;63185;45.642;13.764;2024-03-22T09:17:06;21.30;38.50
74657;DHT22;63185;45.642;13.764;2024-03-22T09:19:31;21.40;37.10
74657;DHT22;63185;45.642;13.764;2024-03-22T09:21:57;21.50;37.80
74657;DHT22;63185;45.642;13.764;2024-03-22T09:24:22;21.60;37.10
74657;DHT22;63185;45.642;13.764;2024-03-22T09:26:48;21.70;36.70
74657;DHT22;63185;45.642;13.764;2024-03-22T09:29:14;22.00;35.90
74657;DHT22;63185;45.642;13.764;2024-03-22T09:31:39;22.10;35.60
74657;DHT22;63185;45.642;13.764;2024-03-22T09:34:05;21.40;41.80
74657;DHT22;63185;45.642;13.764;2024-03-22T09:36:31;20.60;45.80
74657;DHT22;63185;45.642;13.764;2024-03-22T09:39:01;19.60;50.00
74657;DHT22;63185;45.642;13.764;2024-03-22T09:41:27;19.10;52.60
74657;DHT22;63185;45.642;13.764;2024-03-22T09:43:53;18.60;53.10
74657;DHT22;63185;45.642;13.764;2024-03-22T09:46:19;18.60;52.40
74657;DHT22;63185;45.642;13.764;2024-03-22T09:48:48;18.60;52.50
74657;DHT22;63185;45.642;13.764;2024-03-22T09:51:16;18.60;53.40
74657;DHT22;63185;45.642;13.764;2024-03-22T09:53:45;18.70;52.60
74657;DHT22;63185;45.642;13.764;2024-03-22T09:56:14;18.60;53.30
74657;DHT22;63185;45.642;13.764;2024-03-22T09:58:44;18.70;53.50
74657;DHT22;63185;45.642;13.764;2024-03-22T10:01:09;18.60;55.20
74657;DHT22;63185;45.642;13.764;2024-03-22T10:03:36;18.60;56.00
74657;DHT22;63185;45.642;13.764;2024-03-22T10:06:02;18.40;57.70
74657;DHT22;63185;45.642;13.764;2024-03-22T10:08:28;18.30;58.20
74657;DHT22;63185;45.642;13.764;2024-03-22T10:10:53;18.10;59.90
74657;DHT22;63185;45.642;13.764;2024-03-22T10:13:19;18.10;60.60
74657;DHT22;63185;45.642;13.764;2024-03-22T10:15:46;18.00;59.10
74657;DHT22;63185;45.642;13.764;2024-03-22T10:18:12;18.00;59.70
74657;DHT22;63185;45.642;13.764;2024-03-22T10:20:37;17.90;59.10
74657;DHT22;63185;45.642;13.764;2024-03-22T10:23:03;18.10;59.70
74657;DHT22;63185;45.642;13.764;2024-03-22T10:25:29;18.30;60.50
74657;DHT22;63185;45.642;13.764;2024-03-22T10:27:56;18.60;59.20
74657;DHT22;63185;45.642;13.764;2024-03-22T10:30:24;18.40;58.70
74657;DHT22;63185;45.642;13.764;2024-03-22T10:32:50;18.50;58.40
74657;DHT22;63185;45.642;13.764;2024-03-22T10:35:17;18.60;58.10
74657;DHT22;63185;45.642;13.764;2024-03-22T10:37:43;18.30;57.60
74657;DHT22;63185;45.642;13.764;2024-03-22T10:40:09;18.20;58.40
74657;DHT22;63185;45.642;13.764;2024-03-22T10:42:39;18.30;58.40
74657;DHT22;63185;45.642;13.764;2024-03-22T10:45:05;18.20;58.50
74657;DHT22;63185;45.642;13.764;2024-03-22T10:47:32;18.30;58.50
74657;DHT22;63185;45.642;13.764;2024-03-22T10:50:09;18.20;58.40
74657;DHT22;63185;45.642;13.764;2024-03-22T10:53:16;18.30;58.40
74657;DHT22;63185;45.642;13.764;2024-03-22T10:55:45;18.60;56.50
74657;DHT22;63185;45.642;13.764;2024-03-22T10:58:20;18.90;54.80
74657;DHT22;63185;45.642;13.764;2024-03-22T11:00:46;19.00;54.50
74657;DHT22;63185;45.642;13.764;2024-03-22T11:03:12;19.10;53.60
74657;DHT22;63185;45.642;13.764;2024-03-22T11:05:49;19.30;53.90
74657;DHT22;63185;45.642;13.764;2024-03-22T11:10:49;19.20;52.90
74657;DHT22;63185;45.642;13.764;2024-03-22T11:13:16;19.10;52.00
74657;DHT22;63185;45.642;13.764;2024-03-22T11:15:43;19.20;51.60
74657;DHT22;63185;45.642;13.764;2024-03-22T11:18:08;19.10;50.90
74657;DHT22;63185;45.642;13.764;2024-03-22T11:20:37;19.20;49.50
74657;DHT22;63185;45.642;13.764;2024-03-22T11:23:04;19.30;51.40
74657;DHT22;63185;45.642;13.764;2024-03-22T11:25:32;19.30;46.90
74657;DHT22;63185;45.642;13.764;2024-03-22T11:27:58;19.40;49.10
74657;DHT22;63185;45.642;13.764;2024-03-22T11:30:28;19.70;48.50
74657;DHT22;63185;45.642;13.764;2024-03-22T11:32:54;19.90;46.60
74657;DHT22;63185;45.642;13.764;2024-03-22T11:35:20;19.80;44.80
74657;DHT22;63185;45.642;13.764;2024-03-22T11:37:45;19.70;45.70
74657;DHT22;63185;45.642;13.764;2024-03-22T11:40:12;19.90;47.30
74657;DHT22;63185;45.642;13.764;2024-03-22T11:42:42;20.00;42.90
74657;DHT22;63185;45.642;13.764;2024-03-22T11:45:12;20.10;45.60
74657;DHT22;63185;45.642;13.764;2024-03-22T11:47:39;19.70;44.50
74657;DHT22;63185;45.642;13.764;2024-03-22T11:50:05;20.00;46.80
74657;DHT22;63185;45.642;13.764;2024-03-22T11:52:31;19.90;46.10
74657;DHT22;63185;45.642;13.764;2024-03-22T11:54:57;19.90;46.40
74657;DHT22;63185;45.642;13.764;2024-03-22T11:57:23;19.80;47.70
74657;DHT22;63185;45.642;13.764;2024-03-22T11:59:50;19.60;47.20
74657;DHT22;63185;45.642;13.764;2024-03-22T12:02:16;19.80;49.10
74657;DHT22;63185;45.642;13.764;2024-03-22T12:04:46;20.10;46.10
74657;DHT22;63185;45.642;13.764;2024-03-22T12:07:16;20.20;45.90
74657;DHT22;63185;45.642;13.764;2024-03-22T12:09:42;20.00;47.30
74657;DHT22;63185;45.642;13.764;2024-03-22T12:12:08;20.00;45.90
74657;DHT22;63185;45.642;13.764;2024-03-22T12:14:35;20.20;46.50
74657;DHT22;63185;45.642;13.764;2024-03-22T12:17:02;20.40;46.50
74657;DHT22;63185;45.642;13.764;2024-03-22T12:19:28;20.60;46.70
74657;DHT22;63185;45.642;13.764;2024-03-22T12:21:53;20.30;45.70
74657;DHT22;63185;45.642;13.764;2024-03-22T12:24:19;20.20;43.70
74657;DHT22;63185;45.642;13.764;2024-03-22T12:26:44;20.30;44.50
74657;DHT22;63185;45.642;13.764;2024-03-22T12:29:12;20.50;47.30
74657;DHT22;63185;45.642;13.764;2024-03-22T12:31:38;20.60;44.30
74657;DHT22;63185;45.642;13.764;2024-03-22T12:34:04;20.70;48.70
74657;DHT22;63185;45.642;13.764;2024-03-22T12:36:29;20.30;50.40
74657;DHT22;63185;45.642;13.764;2024-03-22T12:38:55;20.50;48.30
74657;DHT22;63185;45.642;13.764;2024-03-22T12:41:21;20.50;44.90
74657;DHT22;63185;45.642;13.764;2024-03-22T12:43:46;20.50;44.30
74657;DHT22;63185;45.642;13.764;2024-03-22T12:46:12;20.80;50.20
74657;DHT22;63185;45.642;13.764;2024-03-22T12:48:41;20.20;52.00
74657;DHT22;63185;45.642;13.764;2024-03-22T12:51:07;20.30;51.80
74657;DHT22;63185;45.642;13.764;2024-03-22T12:53:33;20.10;50.50
74657;DHT22;63185;45.642;13.764;2024-03-22T12:55:58;19.90;48.40
74657;DHT22;63185;45.642;13.764;2024-03-22T12:58:24;20.10;50.80
74657;DHT22;63185;45.642;13.764;2024-03-22T13:00:49;20.10;50.70
74657;DHT22;63185;45.642;13.764;2024-03-22T13:03:15;20.10;49.70
74657;DHT22;63185;45.642;13.764;2024-03-22T13:05:42;20.20;48.50
74657;DHT22;63185;45.642;13.764;2024-03-22T13:08:07;20.40;48.00
74657;DHT22;63185;45.642;13.764;2024-03-22T13:10:33;20.60;45.60
74657;DHT22;63185;45.642;13.764;2024-03-22T13:12:59;20.40;47.00
74657;DHT22;63185;45.642;13.764;2024-03-22T13:15:24;20.10;46.90
74657;DHT22;63185;45.642;13.764;2024-03-22T13:17:51;19.70;49.60
74657;DHT22;63185;45.642;13.764;2024-03-22T13:20:18;19.90;48.10
74657;DHT22;63185;45.642;13.764;2024-03-22T13:22:44;20.10;44.40
74657;DHT22;63185;45.642;13.764;2024-03-22T13:25:10;20.50;43.00
74657;DHT22;63185;45.642;13.764;2024-03-22T13:27:37;20.50;43.40
74657;DHT22;63185;45.642;13.764;2024-03-22T13:30:07;20.40;44.60
74657;DHT22;63185;45.642;13.764;2024-03-22T13:32:39;20.30;44.80
74657;DHT22;63185;45.642;13.764;2024-03-22T13:35:05;20.10;45.50
74657;DHT22;63185;45.642;13.764;2024-03-22T13:37:31;19.90;45.30
74657;DHT22;63185;45.642;13.764;2024-03-22T13:39:57;19.90;46.20
74657;DHT22;63185;45.642;13.764;2024-03-22T13:42:22;20.30;45.50
74657;DHT22;63185;45.642;13.764;2024-03-22T13:44:48;20.20;44.00
74657;DHT22;63185;45.642;13.764;2024-03-22T13:47:14;20.20;44.60
74657;DHT22;63185;45.642;13.764;2024-03-22T13:49:39;20.50;43.80
74657;DHT22;63185;45.642;13.764;2024-03-22T13:52:07;20.50;43.70
74657;DHT22;63185;45.642;13.764;2024-03-22T13:54:33;20.50;42.80
74657;DHT22;63185;45.642;13.764;2024-03-22T13:56:59;20.60;42.50
74657;DHT22;63185;45.642;13.764;2024-03-22T13:59:26;20.40;43.40
74657;DHT22;63185;45.642;13.764;2024-03-22T14:01:52;20.60;44.60
74657;DHT22;63185;45.642;13.764;2024-03-22T14:04:18;20.60;43.60
74657;DHT22;63185;45.642;13.764;2024-03-22T14:06:45;20.30;43.80
74657;DHT22;63185;45.642;13.764;2024-03-22T14:09:11;20.50;43.90
74657;DHT22;63185;45.642;13.764;2024-03-22T14:11:39;20.90;42.30
74657;DHT22;63185;45.642;13.764;2024-03-22T14:14:05;20.70;42.40
74657;DHT22;63185;45.642;13.764;2024-03-22T14:16:31;21.00;40.80
74657;DHT22;63185;45.642;13.764;2024-03-22T14:18:57;21.20;43.10
74657;DHT22;63185;45.642;13.764;2024-03-22T14:21:22;21.50;44.10
74657;DHT22;63185;45.642;13.764;2024-03-22T14:23:49;21.40;46.00
74657;DHT22;63185;45.642;13.764;2024-03-22T14:26:15;21.30;45.40
74657;DHT22;63185;45.642;13.764;2024-03-22T14:28:42;21.50;43.10
74657;DHT22;63185;45.642;13.764;2024-03-22T14:31:08;21.40;43.00
74657;DHT22;63185;45.642;13.764;2024-03-22T14:33:37;20.90;44.30
74657;DHT22;63185;45.642;13.764;2024-03-22T14:36:03;20.60;43.90
74657;DHT22;63185;45.642;13.764;2024-03-22T14:38:30;20.40;45.00
74657;DHT22;63185;45.642;13.764;2024-03-22T14:40:56;20.80;44.30
74657;DHT22;63185;45.642;13.764;2024-03-22T14:43:26;20.90;42.00
74657;DHT22;63185;45.642;13.764;2024-03-22T14:45:53;21.00;42.10
74657;DHT22;63185;45.642;13.764;2024-03-22T14:48:22;21.10;42.10
74657;DHT22;63185;45.642;13.764;2024-03-22T14:50:49;20.80;42.10
74657;DHT22;63185;45.642;13.764;2024-03-22T14:53:16;21.10;43.10
74657;DHT22;63185;45.642;13.764;2024-03-22T14:56:03;21.40;43.40
74657;DHT22;63185;45.642;13.764;2024-03-22T14:58:36;21.60;43.10
74657;DHT22;63185;45.642;13.764;2024-03-22T15:01:06;21.30;43.00
74657;DHT22;63185;45.642;13.764;2024-03-22T15:03:32;21.10;42.50
74657;DHT22;63185;45.642;13.764;2024-03-22T15:05:59;21.20;42.70
74657;DHT22;63185;45.642;13.764;2024-03-22T15:08:26;21.30;42.00
74657;DHT22;63185;45.642;13.764;2024-03-22T15:10:52;22.00;41.70
74657;DHT22;63185;45.642;13.764;2024-03-22T15:13:18;22.00;41.00